Time;durP1;ratioP1;P1;durP2;ratioP2;P2;SDS_P1;SDS_P2;PMS_P1;PMS_P2;Temp;Humidity;BMP_temperature;BMP_pressure;BME280_temperature;BME280_humidity;BME280_pressure;Samples;Min_cycle;Max_cycle;Signal;HPM_P1;HPM_P2
2023/03/05 00:00:14;;;;;;;6.93;1.80;;;3.00;1.00;;;;;;4978373;28;20182;-51
2023/03/05 00:02:40;;;;;;;8.37;1.90;;;3.00;1.00;;;;;;4977638;28;20257;-50
2023/03/05 00:05:07;;;;;;;6.47;1.57;;;3.00;1.00;;;;;;4978003;28;20478;-50
2023/03/05 00:07:32;;;;;;;8.13;1.57;;;3.00;1.00;;;;;;4977383;28;20472;-50
2023/03/05 00:09:59;;;;;;;6.27;1.43;;;3.00;1.00;;;;;;4983280;28;20483;-51
2023/03/05 00:12:25;;;;;;;6.00;1.23;;;3.00;1.00;;;;;;4984280;28;20186;-50
2023/03/05 00:14:51;;;;;;;9.50;1.83;;;3.00;1.00;;;;;;4981125;28;20811;-51
2023/03/05 00:17:17;;;;;;;5.40;1.67;;;3.00;1.00;;;;;;4980229;28;21010;-50
2023/03/05 00:19:42;;;;;;;7.50;1.70;;;3.00;1.00;;;;;;4982424;28;20227;-51
2023/03/05 00:22:08;;;;;;;7.50;1.87;;;3.00;1.00;;;;;;4977667;28;20235;-53
2023/03/05 00:24:35;;;;;;;5.03;1.73;;;3.10;1.00;;;;;;4977693;28;20191;-52
2023/03/05 00:27:00;;;;;;;4.87;1.50;;;3.10;1.00;;;;;;4978844;28;20215;-50
2023/03/05 00:29:27;;;;;;;7.60;1.60;;;3.10;1.00;;;;;;4978797;28;20842;-51
2023/03/05 00:31:53;;;;;;;8.00;1.47;;;3.20;1.00;;;;;;4982564;28;20193;-51
2023/03/05 00:34:19;;;;;;;6.27;1.60;;;3.10;1.00;;;;;;4979261;28;20473;-50
2023/03/05 00:36:49;;;;;;;6.73;1.73;;;3.00;1.00;;;;;;4977736;28;20469;-50
2023/03/05 00:39:16;;;;;;;8.13;1.57;;;3.00;1.00;;;;;;4976624;28;20790;-50
2023/03/05 00:41:42;;;;;;;4.80;1.70;;;3.00;1.00;;;;;;4977451;28;20956;-50
2023/03/05 00:44:08;;;;;;;5.30;2.00;;;2.90;1.00;;;;;;4980534;28;20582;-52
2023/03/05 00:46:33;;;;;;;5.03;1.97;;;2.90;23.70;;;;;;4978582;28;20208;-50
2023/03/05 00:48:59;;;;;;;10.23;1.57;;;2.70;99.90;;;;;;4977497;28;20661;-51
2023/03/05 00:51:26;;;;;;;6.30;1.73;;;2.60;99.90;;;;;;4976492;28;20581;-51
2023/03/05 00:53:51;;;;;;;9.67;1.90;;;2.50;1.00;;;;;;4982604;28;20192;-50
2023/03/05 00:56:17;;;;;;;12.83;1.87;;;2.40;1.00;;;;;;4978101;28;20444;-49
2023/03/05 00:58:43;;;;;;;9.80;2.20;;;2.40;74.80;;;;;;4981297;28;20192;-50
2023/03/05 01:01:08;;;;;;;7.53;1.57;;;2.30;99.90;;;;;;4980243;28;20225;-50
2023/03/05 01:03:35;;;;;;;13.10;2.00;;;2.30;1.00;;;;;;4976740;28;20497;-50
2023/03/05 01:06:04;;;;;;;11.20;2.10;;;2.20;1.00;;;;;;4981120;28;20196;-50
2023/03/05 01:08:29;;;;;;;12.50;1.80;;;2.20;94.80;;;;;;4981301;28;20441;-49
2023/03/05 01:10:55;;;;;;;4.00;1.63;;;2.30;99.90;;;;;;4978105;28;20446;-49
2023/03/05 01:13:21;;;;;;;7.80;2.30;;;2.20;99.90;;;;;;4976332;28;20248;-51
2023/03/05 01:15:49;;;;;;;9.20;1.87;;;2.20;99.90;;;;;;4976908;28;20246;-51
2023/03/05 01:18:15;;;;;;;8.33;2.23;;;2.10;1.00;;;;;;4978702;28;20185;-49
2023/03/05 01:20:41;;;;;;;9.10;1.83;;;2.10;99.90;;;;;;4976832;28;20431;-50
2023/03/05 01:23:07;;;;;;;13.10;2.10;;;2.10;88.10;;;;;;4976451;28;21012;-53
2023/03/05 01:25:33;;;;;;;16.33;1.80;;;2.10;1.00;;;;;;4976548;28;20440;-50
2023/03/05 01:27:59;;;;;;;8.33;1.63;;;2.20;99.90;;;;;;4977140;28;20216;-49
2023/03/05 01:30:24;;;;;;;10.47;2.67;;;2.10;1.00;;;;;;4980665;28;20185;-49
2023/03/05 01:32:50;;;;;;;10.53;2.50;;;2.20;1.00;;;;;;4976610;28;20236;-50
2023/03/05 01:35:19;;;;;;;10.17;2.07;;;2.30;99.90;;;;;;4975041;28;20240;-49
2023/03/05 01:37:45;;;;;;;8.43;3.00;;;2.20;99.90;;;;;;4977553;28;20189;-49
2023/03/05 01:40:13;;;;;;;10.33;2.67;;;2.20;1.00;;;;;;4975335;28;20753;-49
2023/03/05 01:42:43;;;;;;;12.13;3.50;;;2.20;1.00;;;;;;4974190;28;21051;-49
2023/03/05 01:45:11;;;;;;;12.47;3.53;;;2.20;1.00;;;;;;4975905;28;20456;-50
2023/03/05 01:47:38;;;;;;;13.73;2.70;;;2.10;20.70;;;;;;4975425;28;20974;-50
2023/03/05 01:50:10;;;;;;;12.07;2.77;;;2.20;99.90;;;;;;4974885;28;20961;-49
2023/03/05 01:52:39;;;;;;;7.67;2.47;;;2.20;1.00;;;;;;4975408;28;20463;-50
2023/03/05 01:55:10;;;;;;;7.50;2.23;;;2.20;99.90;;;;;;4977121;28;20444;-49
2023/03/05 01:57:49;;;;;;;9.03;1.97;;;2.20;99.90;;;;;;4975182;28;20948;-50
2023/03/05 02:00:22;;;;;;;5.70;1.73;;;2.20;1.00;;;;;;4975625;28;20444;-50
2023/03/05 02:02:50;;;;;;;5.77;1.33;;;2.20;99.90;;;;;;4974453;28;20475;-49
2023/03/05 02:05:25;;;;;;;6.63;1.93;;;2.20;1.00;;;;;;4974540;28;20431;-50
2023/03/05 02:07:53;;;;;;;6.93;1.90;;;2.10;1.00;;;;;;4974464;28;20442;-50
2023/03/05 02:10:20;;;;;;;5.97;1.70;;;2.10;99.90;;;;;;4975051;28;20843;-49
2023/03/05 02:12:48;;;;;;;4.53;1.47;;;2.10;1.00;;;;;;4981002;28;20479;-49
2023/03/05 02:15:14;;;;;;;5.77;1.70;;;2.10;56.00;;;;;;4981600;28;20443;-49
2023/03/05 02:17:39;;;;;;;7.47;2.10;;;2.00;99.90;;;;;;4979135;28;20436;-49
2023/03/05 02:20:19;;;;;;;3.23;1.40;;;1.90;1.00;;;;;;4975431;28;20790;-51
2023/03/05 02:22:45;;;;;;;3.90;1.33;;;1.80;99.90;;;;;;4978524;28;20261;-49
2023/03/05 02:25:16;;;;;;;2.90;1.40;;;1.80;99.90;;;;;;4975200;28;20958;-50
2023/03/05 02:27:49;;;;;;;4.73;1.67;;;1.70;1.00;;;;;;4974726;28;20181;-49
2023/03/05 02:30:15;;;;;;;8.43;2.10;;;1.70;70.20;;;;;;4974341;28;20436;-49
2023/03/05 02:32:40;;;;;;;5.70;1.73;;;1.70;99.90;;;;;;4976306;28;20432;-48
2023/03/05 02:35:06;;;;;;;7.67;1.60;;;1.60;1.00;;;;;;4937977;28;1079674;-48
2023/03/05 02:37:32;;;;;;;3.90;1.60;;;1.70;1.00;;;;;;4975487;28;20550;-50
2023/03/05 02:39:57;;;;;;;6.83;2.13;;;1.70;62.10;;;;;;4975059;28;20193;-49
2023/03/05 02:42:23;;;;;;;5.23;2.13;;;1.70;99.90;;;;;;4975205;28;20227;-50
2023/03/05 02:44:49;;;;;;;6.87;2.10;;;1.70;99.90;;;;;;4978699;28;20189;-49
2023/03/05 02:47:14;;;;;;;5.37;1.90;;;1.70;99.90;;;;;;4974397;28;20196;-50
2023/03/05 02:49:40;;;;;;;12.27;2.57;;;1.70;99.90;;;;;;4974884;28;20248;-50
2023/03/05 02:52:05;;;;;;;10.60;2.37;;;1.70;99.90;;;;;;4975796;28;20204;-50
2023/03/05 02:54:31;;;;;;;6.67;1.73;;;1.70;99.90;;;;;;4975084;28;20189;-50
2023/03/05 02:56:56;;;;;;;13.40;2.20;;;1.70;99.90;;;;;;4974968;28;21151;-49
2023/03/05 02:59:22;;;;;;;3.00;1.60;;;1.70;99.90;;;;;;4975447;28;20221;-49
2023/03/05 03:01:48;;;;;;;8.00;1.70;;;1.70;99.90;;;;;;4975327;28;20197;-48
2023/03/05 03:04:13;;;;;;;9.33;1.73;;;1.70;99.90;;;;;;4975235;28;20324;-50
2023/03/05 03:06:39;;;;;;;11.10;2.70;;;1.70;99.90;;;;;;4982372;28;20204;-49
2023/03/05 03:09:04;;;;;;;10.27;3.10;;;1.70;99.90;;;;;;4975215;28;20191;-48
2023/03/05 03:11:30;;;;;;;5.27;2.10;;;1.60;99.90;;;;;;4976279;28;20189;-48
2023/03/05 03:13:55;;;;;;;8.77;2.53;;;1.60;99.90;;;;;;4976054;28;20186;-48
2023/03/05 03:16:21;;;;;;;7.53;2.30;;;1.50;99.90;;;;;;4975752;28;20425;-48
2023/03/05 03:18:47;;;;;;;6.03;2.57;;;1.50;99.90;;;;;;4976275;28;20190;-49
2023/03/05 03:21:19;;;;;;;8.37;2.33;;;1.50;99.90;;;;;;4976024;28;20192;-48
2023/03/05 03:23:44;;;;;;;9.23;2.90;;;1.50;99.90;;;;;;4979367;28;20440;-48
2023/03/05 03:26:10;;;;;;;7.23;2.67;;;1.50;99.90;;;;;;4977922;28;20768;-49
2023/03/05 03:28:35;;;;;;;7.50;2.70;;;1.50;99.90;;;;;;4980483;28;20201;-49
2023/03/05 03:31:01;;;;;;;22.87;2.97;;;1.50;99.90;;;;;;4985566;28;20243;-48
2023/03/05 03:33:27;;;;;;;9.47;3.20;;;1.50;99.90;;;;;;4977421;28;20748;-48
2023/03/05 03:35:52;;;;;;;9.17;4.10;;;1.50;99.90;;;;;;4974641;28;20227;-50
2023/03/05 03:38:18;;;;;;;5.80;3.10;;;1.40;99.90;;;;;;4974987;28;20197;-48
2023/03/05 03:40:43;;;;;;;8.20;3.00;;;1.40;99.90;;;;;;4972969;28;20220;-48
2023/03/05 03:43:09;;;;;;;6.53;3.40;;;1.40;99.90;;;;;;4975640;28;20220;-50
2023/03/05 03:45:38;;;;;;;9.67;2.40;;;1.40;99.90;;;;;;4978333;28;20235;-48
2023/03/05 03:48:04;;;;;;;6.07;3.00;;;1.30;99.90;;;;;;4976813;28;20243;-49
2023/03/05 03:50:29;;;;;;;6.57;3.30;;;1.20;88.00;;;;;;4977418;28;20451;-48
2023/03/05 03:52:55;;;;;;;5.87;3.37;;;1.20;32.20;;;;;;4976510;28;20189;-51
2023/03/05 03:55:21;;;;;;;7.10;4.00;;;1.20;23.30;;;;;;4979135;28;20243;-50
2023/03/05 03:57:46;;;;;;;8.33;4.20;;;1.20;15.70;;;;;;4975283;28;20204;-50
2023/03/05 04:00:12;;;;;;;8.80;3.90;;;1.20;3.50;;;;;;4977585;28;20210;-49
2023/03/05 04:02:38;;;;;;;6.20;3.93;;;1.20;1.00;;;;;;4976507;28;20225;-49
2023/03/05 04:05:04;;;;;;;10.43;3.50;;;1.20;1.00;;;;;;4980894;28;20452;-49
2023/03/05 04:07:29;;;;;;;14.13;3.93;;;1.10;1.00;;;;;;4980851;28;20199;-49
2023/03/05 04:09:55;;;;;;;9.93;2.90;;;1.20;17.00;;;;;;4982890;28;20943;-49
2023/03/05 04:12:21;;;;;;;9.23;3.53;;;1.20;81.00;;;;;;4982091;28;20188;-49
2023/03/05 04:14:47;;;;;;;5.10;2.40;;;1.20;72.90;;;;;;4978597;28;20192;-49
2023/03/05 04:17:14;;;;;;;6.20;2.23;;;1.30;27.60;;;;;;4977537;28;20562;-49
2023/03/05 04:19:40;;;;;;;9.00;2.57;;;1.30;1.00;;;;;;4978961;28;20500;-49
2023/03/05 04:22:11;;;;;;;8.30;2.30;;;1.40;1.00;;;;;;4977702;28;20448;-50
2023/03/05 04:24:37;;;;;;;3.00;1.90;;;1.40;1.00;;;;;;4977653;28;20433;-49
2023/03/05 04:27:03;;;;;;;4.43;1.90;;;1.40;99.90;;;;;;4986923;28;20915;-49
2023/03/05 04:29:29;;;;;;;7.47;2.40;;;1.40;99.90;;;;;;4977171;28;20529;-51
2023/03/05 04:31:55;;;;;;;7.50;2.03;;;1.40;1.00;;;;;;4982211;28;20521;-49
2023/03/05 04:34:20;;;;;;;3.73;2.10;;;1.40;1.00;;;;;;4977525;28;20237;-49
2023/03/05 04:36:46;;;;;;;4.23;2.10;;;1.40;1.00;;;;;;4976155;28;20189;-49
2023/03/05 04:39:11;;;;;;;6.03;2.50;;;1.40;99.90;;;;;;4982102;28;20189;-50
2023/03/05 04:41:37;;;;;;;6.47;2.23;;;1.50;84.20;;;;;;4981694;28;20236;-49
2023/03/05 04:44:03;;;;;;;7.07;2.90;;;1.50;1.00;;;;;;4980333;28;20230;-49
2023/03/05 04:46:29;;;;;;;5.50;2.50;;;1.40;1.00;;;;;;4981111;28;20594;-50
2023/03/05 04:48:56;;;;;;;7.90;2.37;;;1.50;1.00;;;;;;4982180;28;20268;-49
2023/03/05 04:51:22;;;;;;;6.10;2.50;;;1.50;1.00;;;;;;4981009;28;20193;-49
2023/03/05 04:53:47;;;;;;;18.17;2.87;;;1.50;1.00;;;;;;4980065;28;20940;-49
2023/03/05 04:56:13;;;;;;;6.17;2.47;;;1.50;1.00;;;;;;4982618;28;20188;-49
2023/03/05 04:58:39;;;;;;;11.43;2.97;;;1.50;1.00;;;;;;4979588;28;20188;-49
2023/03/05 05:01:05;;;;;;;4.93;2.33;;;1.50;1.00;;;;;;4978383;28;20220;-49
2023/03/05 05:03:31;;;;;;;7.67;2.73;;;1.50;1.00;;;;;;4976991;28;20217;-48
2023/03/05 05:05:58;;;;;;;7.17;3.00;;;1.50;1.00;;;;;;4980943;28;20777;-49
2023/03/05 05:08:25;;;;;;;4.47;2.50;;;1.50;99.90;;;;;;4977685;28;20714;-49
2023/03/05 05:10:58;;;;;;;9.17;3.17;;;1.50;99.90;;;;;;4979186;28;20970;-49
2023/03/05 05:13:24;;;;;;;11.03;3.10;;;1.50;99.90;;;;;;4977547;28;20484;-49
2023/03/05 05:15:50;;;;;;;4.37;2.40;;;1.50;1.00;;;;;;4981415;28;20934;-49
2023/03/05 05:18:16;;;;;;;5.60;2.40;;;1.50;1.00;;;;;;4982960;28;20436;-49
2023/03/05 05:20:42;;;;;;;7.37;2.80;;;1.50;1.00;;;;;;4976982;28;20436;-49
2023/03/05 05:23:07;;;;;;;15.13;2.17;;;1.50;1.00;;;;;;4984508;28;20322;-48
2023/03/05 05:25:33;;;;;;;10.57;1.90;;;1.50;1.00;;;;;;4976815;28;20197;-50
2023/03/05 05:27:59;;;;;;;7.07;2.20;;;1.50;1.00;;;;;;4981817;28;20182;-49
2023/03/05 05:30:24;;;;;;;5.50;1.43;;;1.50;1.00;;;;;;4979850;28;20202;-49
2023/03/05 05:32:50;;;;;;;6.60;1.40;;;1.50;1.00;;;;;;4977298;28;20204;-49
2023/03/05 05:35:15;;;;;;;5.50;1.67;;;1.50;99.90;;;;;;4979027;28;20628;-49
2023/03/05 05:37:41;;;;;;;7.13;1.70;;;1.50;99.90;;;;;;4978389;28;20193;-49
2023/03/05 05:40:08;;;;;;;10.63;1.80;;;1.50;95.30;;;;;;4975743;28;20699;-49
2023/03/05 05:42:34;;;;;;;5.73;1.40;;;1.50;3.20;;;;;;4979429;28;20225;-49
2023/03/05 05:45:01;;;;;;;4.93;1.50;;;1.50;45.50;;;;;;4981022;28;20526;-49
2023/03/05 05:47:28;;;;;;;13.07;2.40;;;1.50;1.00;;;;;;4978340;28;20452;-49
2023/03/05 05:49:54;;;;;;;7.60;1.70;;;1.50;1.00;;;;;;4976930;28;20800;-49
2023/03/05 05:52:20;;;;;;;6.67;1.37;;;1.50;99.90;;;;;;4977190;28;20447;-49
2023/03/05 05:54:46;;;;;;;10.47;1.30;;;1.50;99.90;;;;;;4979063;28;20442;-50
2023/03/05 05:57:12;;;;;;;3.03;1.10;;;1.60;1.00;;;;;;4979543;28;20447;-49
2023/03/05 05:59:38;;;;;;;9.40;1.83;;;1.60;99.90;;;;;;4980697;28;20560;-52
2023/03/05 06:02:04;;;;;;;5.80;1.40;;;1.60;1.00;;;;;;4981874;28;20213;-49
2023/03/05 06:04:30;;;;;;;5.90;1.33;;;1.60;99.90;;;;;;4975707;28;20541;-49
2023/03/05 06:06:57;;;;;;;3.40;1.20;;;1.70;17.90;;;;;;4977221;28;20488;-49
2023/03/05 06:09:22;;;;;;;7.90;1.10;;;1.70;1.00;;;;;;4979314;28;20199;-49
2023/03/05 06:11:49;;;;;;;6.60;1.60;;;1.70;1.00;;;;;;4976289;28;20440;-49
2023/03/05 06:14:14;;;;;;;6.43;1.33;;;1.60;99.90;;;;;;4978699;28;20201;-49
2023/03/05 06:16:40;;;;;;;8.00;1.60;;;1.60;99.90;;;;;;4979053;28;20799;-49
2023/03/05 06:19:07;;;;;;;6.30;1.10;;;1.70;98.10;;;;;;4975663;28;20193;-50
2023/03/05 06:21:33;;;;;;;5.73;1.67;;;1.70;1.00;;;;;;4975821;28;20689;-50
2023/03/05 06:23:58;;;;;;;4.00;1.00;;;1.70;99.90;;;;;;4976010;28;20507;-51
2023/03/05 06:26:24;;;;;;;2.63;1.20;;;1.60;1.00;;;;;;4979154;28;20184;-49
2023/03/05 06:28:51;;;;;;;4.30;1.10;;;1.70;1.00;;;;;;4978919;28;20549;-50
2023/03/05 06:31:20;;;;;;;4.00;1.37;;;1.70;99.90;;;;;;4975254;28;20233;-50
2023/03/05 06:33:47;;;;;;;4.60;1.00;;;1.70;99.90;;;;;;4976373;28;20447;-50
2023/03/05 06:36:15;;;;;;;3.47;1.20;;;1.70;1.00;;;;;;4984556;28;20463;-49
2023/03/05 06:38:41;;;;;;;6.13;0.90;;;1.70;1.00;;;;;;4975258;28;20932;-49
2023/03/05 06:41:17;;;;;;;4.87;1.10;;;1.70;99.90;;;;;;4976523;28;20455;-50
2023/03/05 06:43:44;;;;;;;8.73;1.10;;;1.70;99.90;;;;;;4977161;28;21024;-49
2023/03/05 06:46:18;;;;;;;4.87;1.00;;;1.90;99.90;;;;;;4981703;28;20439;-50
2023/03/05 06:48:44;;;;;;;1.83;0.80;;;1.90;21.00;;;;;;4980502;28;20443;-49
2023/03/05 06:51:22;;;;;;;5.10;1.47;;;1.90;1.00;;;;;;4980344;28;20441;-49
2023/03/05 06:53:47;;;;;;;3.93;1.13;;;1.90;11.70;;;;;;4979107;28;20429;-49
2023/03/05 06:56:15;;;;;;;5.57;3.23;;;1.90;69.00;;;;;;4974536;28;21033;-48
2023/03/05 06:58:42;;;;;;;3.43;1.13;;;1.90;99.90;;;;;;4978120;28;20193;-49
2023/03/05 07:01:08;;;;;;;9.87;1.60;;;1.90;99.90;;;;;;4978708;28;20440;-50
2023/03/05 07:03:37;;;;;;;2.27;0.93;;;1.90;99.90;;;;;;4979926;28;20481;-49
2023/03/05 07:06:08;;;;;;;3.43;1.10;;;1.90;99.90;;;;;;4976835;28;20447;-49
2023/03/05 07:08:34;;;;;;;1.50;0.93;;;2.00;1.00;;;;;;4977421;28;20448;-50
2023/03/05 07:11:00;;;;;;;4.87;1.20;;;2.10;1.00;;;;;;4979578;28;20448;-49
2023/03/05 07:13:27;;;;;;;4.07;1.63;;;2.10;1.00;;;;;;4982540;28;20441;-49
2023/03/05 07:15:53;;;;;;;3.63;1.47;;;2.20;22.40;;;;;;4977175;28;20194;-49
2023/03/05 07:18:19;;;;;;;3.37;1.40;;;2.30;1.00;;;;;;4976590;28;20494;-49
2023/03/05 07:20:45;;;;;;;2.97;1.17;;;2.40;1.00;;;;;;4978011;28;20812;-50
2023/03/05 07:23:10;;;;;;;1.20;1.07;;;2.40;99.90;;;;;;4983305;28;20477;-50
2023/03/05 07:25:37;;;;;;;1.47;0.90;;;2.50;1.00;;;;;;4979908;28;20204;-49
2023/03/05 07:28:04;;;;;;;2.17;1.17;;;2.50;1.00;;;;;;4977962;28;20189;-49
2023/03/05 07:30:30;;;;;;;4.23;1.00;;;2.50;1.00;;;;;;4982435;28;21282;-49
2023/03/05 07:32:56;;;;;;;4.07;1.50;;;2.60;1.00;;;;;;4981752;28;20826;-49
2023/03/05 07:35:23;;;;;;;9.73;1.70;;;2.80;99.90;;;;;;4981426;28;20479;-49
2023/03/05 07:37:49;;;;;;;14.43;1.70;;;2.70;99.90;;;;;;4979894;28;20199;-49
2023/03/05 07:40:14;;;;;;;7.60;1.87;;;2.70;86.20;;;;;;4978477;28;20494;-49
2023/03/05 07:42:40;;;;;;;1.97;1.20;;;2.70;1.00;;;;;;4978595;28;20221;-49
2023/03/05 07:45:06;;;;;;;4.03;1.43;;;2.70;1.00;;;;;;4980365;28;20196;-49
2023/03/05 07:47:32;;;;;;;5.70;1.30;;;2.60;80.10;;;;;;4984147;28;20613;-49
2023/03/05 07:49:57;;;;;;;3.00;1.30;;;2.50;99.90;;;;;;4982423;28;20482;-49
2023/03/05 07:52:23;;;;;;;4.50;1.40;;;2.50;99.90;;;;;;4977737;28;20340;-50
2023/03/05 07:54:49;;;;;;;3.33;1.40;;;2.50;99.90;;;;;;4978498;28;20185;-49
2023/03/05 07:57:14;;;;;;;2.87;1.63;;;2.50;99.90;;;;;;4978340;28;20193;-49
2023/03/05 07:59:40;;;;;;;11.27;1.90;;;2.60;1.00;;;;;;4981664;28;20662;-49
2023/03/05 08:02:06;;;;;;;5.13;2.20;;;2.70;1.00;;;;;;4987401;28;20204;-50
2023/03/05 08:04:32;;;;;;;10.83;3.27;;;2.70;99.90;;;;;;4977929;28;20212;-49
2023/03/05 08:06:58;;;;;;;4.30;2.87;;;2.70;99.90;;;;;;4986273;28;20953;-50
2023/03/05 08:09:24;;;;;;;6.30;2.73;;;2.90;99.90;;;;;;4978941;28;20199;-49
2023/03/05 08:11:50;;;;;;;8.90;2.67;;;3.00;1.00;;;;;;4977968;28;20970;-50
2023/03/05 08:14:15;;;;;;;7.00;2.53;;;3.10;99.90;;;;;;4977843;28;20192;-50
2023/03/05 08:16:41;;;;;;;4.80;2.43;;;3.10;1.00;;;;;;4982817;28;20193;-50
2023/03/05 08:19:07;;;;;;;5.13;1.97;;;3.20;1.00;;;;;;4979740;28;20546;-50
2023/03/05 08:21:34;;;;;;;10.77;2.37;;;3.20;1.00;;;;;;4980761;28;20223;-49
2023/03/05 08:24:02;;;;;;;10.00;2.30;;;3.30;1.00;;;;;;4977298;28;20230;-50
2023/03/05 08:26:30;;;;;;;10.90;2.50;;;3.40;99.90;;;;;;4980137;28;20454;-49
2023/03/05 08:28:56;;;;;;;3.43;2.20;;;3.60;99.90;;;;;;4981996;28;20471;-50
2023/03/05 08:31:24;;;;;;;4.40;2.37;;;4.10;99.90;;;;;;4977104;28;20952;-50
2023/03/05 08:33:51;;;;;;;3.37;1.77;;;4.70;99.90;;;;;;4980807;28;20504;-50
2023/03/05 08:36:17;;;;;;;2.27;1.40;;;5.30;30.80;;;;;;4983156;28;20476;-49
2023/03/05 08:38:43;;;;;;;5.50;1.83;;;6.20;1.00;;;;;;4979757;28;20936;-50
2023/03/05 08:41:09;;;;;;;6.10;1.57;;;6.60;1.00;;;;;;4981720;28;20191;-49
2023/03/05 08:43:35;;;;;;;5.13;1.83;;;6.60;1.00;;;;;;4979920;28;20475;-50
2023/03/05 08:46:01;;;;;;;3.77;1.43;;;6.70;1.00;;;;;;4980537;28;20970;-51
2023/03/05 08:48:27;;;;;;;6.17;2.10;;;7.00;1.00;;;;;;4981866;28;20303;-51
2023/03/05 08:50:53;;;;;;;3.90;1.87;;;6.90;1.00;;;;;;4978257;28;21011;-50
2023/03/05 08:53:19;;;;;;;7.47;2.53;;;6.80;1.00;;;;;;4979005;28;20441;-50
2023/03/05 08:55:56;;;;;;;8.50;2.13;;;6.40;1.00;;;;;;4977440;28;23062;-50
2023/03/05 08:58:23;;;;;;;5.27;2.17;;;6.20;1.00;;;;;;4977782;28;20197;-50
2023/03/05 09:00:48;;;;;;;2.47;1.70;;;6.00;1.00;;;;;;4978121;28;20445;-50
2023/03/05 09:03:14;;;;;;;6.80;2.10;;;5.60;1.00;;;;;;4977875;28;20540;-50
2023/03/05 09:05:40;;;;;;;6.73;1.80;;;5.40;1.00;;;;;;4982102;28;20608;-51
2023/03/05 09:08:05;;;;;;;5.50;1.87;;;5.30;1.00;;;;;;4978559;28;20202;-50
2023/03/05 09:10:31;;;;;;;1.70;1.30;;;5.20;1.00;;;;;;4976832;28;20268;-50
2023/03/05 09:12:56;;;;;;;8.17;1.63;;;5.10;1.00;;;;;;4982162;28;20185;-50
2023/03/05 09:15:22;;;;;;;8.00;1.93;;;5.10;1.00;;;;;;4978632;28;20292;-50
2023/03/05 09:17:48;;;;;;;3.87;1.73;;;5.20;1.00;;;;;;4977661;28;20236;-50
2023/03/05 09:20:14;;;;;;;11.17;1.83;;;5.30;1.00;;;;;;4977179;28;20197;-50
2023/03/05 09:22:40;;;;;;;3.63;1.77;;;5.30;1.00;;;;;;4980972;28;20320;-50
2023/03/05 09:25:06;;;;;;;6.30;1.50;;;5.30;1.00;;;;;;4979066;28;20519;-50
2023/03/05 09:27:33;;;;;;;6.13;1.73;;;5.30;1.00;;;;;;4977246;28;20193;-51
2023/03/05 09:29:59;;;;;;;3.13;1.47;;;5.40;1.00;;;;;;4976365;28;20438;-50
2023/03/05 09:32:24;;;;;;;7.57;1.60;;;5.50;1.00;;;;;;4976536;28;20447;-51
2023/03/05 09:34:50;;;;;;;5.30;1.20;;;5.60;1.00;;;;;;4978145;28;20230;-50
2023/03/05 09:37:16;;;;;;;12.20;1.30;;;5.70;1.00;;;;;;4977377;28;20218;-51
2023/03/05 09:39:41;;;;;;;3.90;1.20;;;5.90;1.00;;;;;;4983410;28;20196;-50
2023/03/05 09:42:35;;;;;;;5.43;1.40;;;6.00;1.00;;;;;;4976967;28;20241;-50
2023/03/05 09:45:24;;;;;;;8.27;1.90;;;5.90;1.00;;;;;;4977190;28;20198;-50
2023/03/05 09:48:06;;;;;;;4.90;1.53;;;5.70;1.00;;;;;;4975333;28;20450;-51
2023/03/05 09:50:43;;;;;;;4.30;1.33;;;5.30;1.00;;;;;;4976440;28;20447;-50
2023/03/05 09:53:14;;;;;;;6.53;1.80;;;5.00;1.00;;;;;;4977375;28;20437;-51
2023/03/05 09:55:44;;;;;;;6.47;1.67;;;4.70;1.00;;;;;;4984156;28;20916;-51
2023/03/05 09:58:17;;;;;;;8.63;1.73;;;4.40;1.00;;;;;;4986264;28;20970;-51
2023/03/05 10:00:54;;;;;;;4.17;1.57;;;4.10;1.00;;;;;;4990616;28;20445;-50
2023/03/05 10:03:32;;;;;;;7.27;1.93;;;3.70;1.00;;;;;;4992737;28;20535;-50
2023/03/05 10:06:02;;;;;;;11.37;2.80;;;3.50;1.00;;;;;;4992327;28;20925;-50
2023/03/05 10:08:38;;;;;;;3.17;2.10;;;3.30;1.00;;;;;;4992801;28;20845;-51
2023/03/05 10:11:16;;;;;;;4.83;2.10;;;3.10;26.80;;;;;;4991787;28;20451;-51
2023/03/05 10:13:45;;;;;;;4.80;2.40;;;3.00;98.70;;;;;;4989492;28;20487;-51
2023/03/05 10:16:33;;;;;;;6.10;2.53;;;2.80;99.90;;;;;;4993083;28;20424;-50
2023/03/05 10:19:51;;;;;;;10.60;2.73;;;2.70;99.90;;;;;;4991084;28;20515;-47
2023/03/05 10:22:18;;;;;;;8.23;3.10;;;2.70;99.90;;;;;;4978989;28;20485;-50
2023/03/05 10:24:59;;;;;;;5.53;2.70;;;2.70;1.00;;;;;;4990882;28;20927;-50
2023/03/05 10:27:48;;;;;;;7.73;2.80;;;2.70;1.00;;;;;;4987422;28;20484;-50
2023/03/05 10:30:20;;;;;;;8.33;2.60;;;2.80;1.00;;;;;;4982504;28;20455;-49
2023/03/05 10:32:45;;;;;;;6.60;2.60;;;2.80;1.00;;;;;;4990389;28;20522;-50
2023/03/05 10:35:39;;;;;;;8.70;2.67;;;2.70;1.00;;;;;;4992300;28;20854;-50
2023/03/05 10:38:46;;;;;;;9.27;2.50;;;2.70;1.00;;;;;;4993065;28;20235;-50
2023/03/05 10:41:32;;;;;;;11.70;3.23;;;3.10;99.90;;;;;;4985449;28;20433;-50
2023/03/05 10:44:11;;;;;;;4.23;2.00;;;3.90;1.00;;;;;;4992339;28;20491;-50
2023/03/05 10:46:38;;;;;;;3.70;2.10;;;4.10;99.90;;;;;;4990931;28;20433;-50
2023/03/05 10:49:28;;;;;;;6.80;2.00;;;4.10;99.90;;;;;;4983829;28;20439;-50
2023/03/05 10:52:12;;;;;;;6.10;2.20;;;4.20;99.90;;;;;;4987588;28;20441;-49
2023/03/05 10:54:40;;;;;;;10.07;2.20;;;4.60;79.60;;;;;;4980076;28;23937;-51
2023/03/05 10:57:14;;;;;;;5.10;2.43;;;5.10;34.60;;;;;;4985467;28;20437;-50
2023/03/05 10:59:49;;;;;;;4.33;1.90;;;6.10;1.00;;;;;;4980851;28;20453;-50
2023/03/05 11:02:16;;;;;;;4.90;1.93;;;6.90;1.00;;;;;;4991149;28;20486;-49
2023/03/05 11:04:42;;;;;;;2.50;1.80;;;8.10;1.00;;;;;;4981093;28;22399;-50
2023/03/05 11:07:30;;;;;;;4.33;1.87;;;8.70;1.00;;;;;;4979277;28;20954;-49
2023/03/05 11:10:15;;;;;;;5.70;1.47;;;8.90;1.00;;;;;;4985125;28;20192;-50
2023/03/05 11:12:41;;;;;;;7.10;1.73;;;9.50;1.00;;;;;;4979209;28;20485;-50
2023/03/05 11:15:12;;;;;;;5.37;1.30;;;9.40;1.00;;;;;;4994594;28;20437;-50
2023/03/05 11:18:03;;;;;;;2.70;1.30;;;8.70;1.00;;;;;;4980996;28;20528;-52
2023/03/05 11:20:36;;;;;;;1.70;1.30;;;7.60;1.00;;;;;;4989305;28;20452;-50
2023/03/05 11:23:15;;;;;;;3.80;1.60;;;6.70;1.00;;;;;;4978527;28;20534;-50
2023/03/05 11:25:57;;;;;;;3.50;1.47;;;6.10;1.00;;;;;;4982090;28;20493;-51
2023/03/05 11:28:26;;;;;;;3.30;1.40;;;5.50;1.00;;;;;;4983072;28;20439;-50
2023/03/05 11:30:56;;;;;;;4.97;1.30;;;6.40;1.00;;;;;;4983487;28;20845;-50
2023/03/05 11:33:22;;;;;;;1.93;1.20;;;7.90;1.00;;;;;;4984985;28;20531;-50
2023/03/05 11:35:50;;;;;;;2.90;1.33;;;9.60;1.00;;;;;;4983205;28;20850;-50
2023/03/05 11:38:17;;;;;;;1.73;1.23;;;11.10;1.00;;;;;;4983700;28;20441;-48
2023/03/05 11:40:43;;;;;;;4.23;1.37;;;10.80;1.00;;;;;;4980554;28;20535;-48
2023/03/05 11:43:14;;;;;;;4.97;1.33;;;10.20;1.00;;;;;;4986391;28;20884;-48
2023/03/05 11:45:42;;;;;;;3.37;1.43;;;10.00;1.00;;;;;;4986053;28;20190;-49
2023/03/05 11:48:16;;;;;;;2.90;1.60;;;9.70;1.00;;;;;;4982935;28;20436;-52
2023/03/05 11:50:45;;;;;;;3.10;1.57;;;9.40;1.00;;;;;;4980938;28;20445;-50
2023/03/05 11:53:17;;;;;;;2.80;1.67;;;10.50;1.00;;;;;;4981271;28;20456;-50
2023/03/05 11:55:50;;;;;;;3.07;1.40;;;11.00;1.00;;;;;;4977917;28;20457;-50
2023/03/05 11:58:28;;;;;;;3.20;1.60;;;11.40;1.00;;;;;;4982153;28;21139;-51
2023/03/05 12:00:55;;;;;;;2.87;1.40;;;10.90;1.00;;;;;;4980693;28;20441;-50
2023/03/05 12:03:24;;;;;;;1.70;1.20;;;10.00;1.00;;;;;;4987260;28;20473;-50
2023/03/05 12:05:55;;;;;;;3.53;1.10;;;10.20;1.00;;;;;;4981647;28;20494;-50
2023/03/05 12:08:28;;;;;;;1.10;1.00;;;10.60;1.00;;;;;;4982440;28;20436;-51
2023/03/05 12:10:54;;;;;;;1.40;0.97;;;10.20;1.00;;;;;;4977251;28;20457;-50
2023/03/05 12:13:27;;;;;;;2.40;1.10;;;9.20;1.00;;;;;;4981706;28;20437;-50
2023/03/05 12:16:08;;;;;;;2.07;1.53;;;8.50;1.00;;;;;;4980482;28;20807;-49
2023/03/05 12:18:50;;;;;;;4.37;1.77;;;8.00;1.00;;;;;;4983841;28;20454;-49
2023/03/05 12:21:38;;;;;;;4.00;1.30;;;7.90;1.00;;;;;;4982865;28;20447;-49
2023/03/05 12:24:24;;;;;;;3.63;1.40;;;7.40;1.00;;;;;;4978046;28;20882;-49
2023/03/05 12:27:04;;;;;;;2.20;0.93;;;7.10;1.00;;;;;;4970528;28;20559;-49
2023/03/05 12:29:42;;;;;;;2.90;1.27;;;6.90;1.00;;;;;;4979601;28;20857;-48
2023/03/05 12:32:34;;;;;;;2.73;1.00;;;6.80;1.00;;;;;;4984310;28;20449;-50
2023/03/05 12:35:03;;;;;;;2.60;1.17;;;6.50;1.00;;;;;;4965012;28;20516;-49
2023/03/05 12:37:28;;;;;;;1.37;0.80;;;6.30;1.00;;;;;;4978822;28;20468;-49
2023/03/05 12:40:03;;;;;;;1.70;1.00;;;6.30;1.00;;;;;;4985854;28;20441;-48
2023/03/05 12:42:29;;;;;;;6.77;1.90;;;6.20;1.00;;;;;;4980393;28;20202;-49
2023/03/05 12:45:15;;;;;;;3.13;1.03;;;6.00;1.00;;;;;;4981339;28;20433;-49
2023/03/05 12:47:42;;;;;;;2.60;0.77;;;5.80;1.00;;;;;;4981160;28;20197;-50
2023/03/05 12:50:26;;;;;;;2.47;0.80;;;5.70;1.00;;;;;;4978375;28;20458;-52
2023/03/05 12:53:08;;;;;;;2.20;0.90;;;5.70;1.00;;;;;;4980917;28;20441;-50
2023/03/05 12:55:54;;;;;;;2.63;0.93;;;5.80;1.00;;;;;;4982618;28;20880;-48
2023/03/05 12:58:38;;;;;;;2.30;1.10;;;5.90;1.00;;;;;;4980386;28;20464;-51
2023/03/05 13:01:10;;;;;;;2.13;1.37;;;5.80;1.00;;;;;;4981568;28;20448;-48
2023/03/05 13:03:56;;;;;;;6.13;1.10;;;6.00;1.00;;;;;;4977022;28;20486;-49
2023/03/05 13:06:32;;;;;;;2.33;0.83;;;6.90;1.00;;;;;;4976991;28;20449;-49
2023/03/05 13:09:22;;;;;;;2.10;0.97;;;7.60;1.00;;;;;;4980049;28;20449;-49
2023/03/05 13:11:52;;;;;;;3.03;1.00;;;8.30;1.00;;;;;;4980754;28;20465;-49